Lumberton, New Mexico
Current Conditions -  °F | °C
As of 6:53 AM on Sunday 25 Jan 2015 (Local Time) from KDRO Reporting Station
Clear Clear  
Wind Chill:   Ceiling: Unl
Heat Index: 16°   Visibility: 10mi
Dew Point: 13°   Wind: 5mph
Humidity: 88%   Direction: 40°NE
Pressure: 30.3"   Gusts: NA
Location:  36.6026°N, 107.231°W
Report Text: KDRO 251353Z AUTO 04004KT 10SM CLR M09/M11 A3030 RMK AO2 SLP314 T10891106
Loading
Personal Weather Stations






























Interactive Weather Map New forecast layout! Learn more

10-Day Weather Forecast

Advertisements
Track Severe Weather on mobile